sensor_id;sensor_type;location;lat;lon;timestamp;P1;durP1;ratioP1;P2;durP2;ratioP2
3971;SDS011;2000;47.572;14.202;2022-08-30T00:02:41;14.17;;;5.80;;
3971;SDS011;2000;47.572;14.202;2022-08-30T00:05:09;9.30;;;5.67;;
3971;SDS011;2000;47.572;14.202;2022-08-30T00:07:36;13.40;;;7.17;;
3971;SDS011;2000;47.572;14.202;2022-08-30T00:10:03;10.53;;;6.27;;
3971;SDS011;2000;47.572;14.202;2022-08-30T00:12:30;13.60;;;6.70;;
3971;SDS011;2000;47.572;14.202;2022-08-30T00:14:58;17.53;;;7.40;;
3971;SDS011;2000;47.572;14.202;2022-08-30T00:17:24;18.23;;;7.13;;
3971;SDS011;2000;47.572;14.202;2022-08-30T00:19:52;10.10;;;7.17;;
3971;SDS011;2000;47.572;14.202;2022-08-30T00:22:21;14.27;;;6.70;;
3971;SDS011;2000;47.572;14.202;2022-08-30T00:24:47;10.83;;;6.80;;
3971;SDS011;2000;47.572;14.202;2022-08-30T00:27:15;13.07;;;6.67;;
3971;SDS011;2000;47.572;14.202;2022-08-30T00:29:42;7.97;;;6.70;;
3971;SDS011;2000;47.572;14.202;2022-08-30T00:32:08;10.50;;;5.90;;
3971;SDS011;2000;47.572;14.202;2022-08-30T00:34:36;9.13;;;5.53;;
3971;SDS011;2000;47.572;14.202;2022-08-30T00:37:03;11.20;;;5.90;;
3971;SDS011;2000;47.572;14.202;2022-08-30T00:39:30;9.70;;;6.40;;
3971;SDS011;2000;47.572;14.202;2022-08-30T00:41:56;10.43;;;5.80;;
3971;SDS011;2000;47.572;14.202;2022-08-30T00:44:23;9.60;;;5.97;;
3971;SDS011;2000;47.572;14.202;2022-08-30T00:46:50;10.30;;;6.07;;
3971;SDS011;2000;47.572;14.202;2022-08-30T00:49:17;6.43;;;5.67;;
3971;SDS011;2000;47.572;14.202;2022-08-30T00:51:44;10.80;;;6.10;;
3971;SDS011;2000;47.572;14.202;2022-08-30T00:54:11;13.90;;;6.37;;
3971;SDS011;2000;47.572;14.202;2022-08-30T00:56:38;21.97;;;6.07;;
3971;SDS011;2000;47.572;14.202;2022-08-30T00:59:05;12.37;;;5.90;;
3971;SDS011;2000;47.572;14.202;2022-08-30T01:01:33;7.97;;;5.80;;
3971;SDS011;2000;47.572;14.202;2022-08-30T01:04:03;18.27;;;6.20;;
3971;SDS011;2000;47.572;14.202;2022-08-30T01:06:31;12.90;;;5.73;;
3971;SDS011;2000;47.572;14.202;2022-08-30T01:08:59;5.20;;;4.40;;
3971;SDS011;2000;47.572;14.202;2022-08-30T01:11:27;14.00;;;6.43;;
3971;SDS011;2000;47.572;14.202;2022-08-30T01:13:54;10.67;;;6.37;;
3971;SDS011;2000;47.572;14.202;2022-08-30T01:16:21;10.10;;;5.63;;
3971;SDS011;2000;47.572;14.202;2022-08-30T01:18:53;7.73;;;6.00;;
3971;SDS011;2000;47.572;14.202;2022-08-30T01:21:33;6.67;;;5.50;;
3971;SDS011;2000;47.572;14.202;2022-08-30T01:24:05;11.70;;;5.70;;
3971;SDS011;2000;47.572;14.202;2022-08-30T01:26:33;10.10;;;5.90;;
3971;SDS011;2000;47.572;14.202;2022-08-30T01:29:01;7.60;;;4.93;;
3971;SDS011;2000;47.572;14.202;2022-08-30T01:31:33;13.53;;;6.10;;
3971;SDS011;2000;47.572;14.202;2022-08-30T01:34:02;8.37;;;6.40;;
3971;SDS011;2000;47.572;14.202;2022-08-30T01:36:34;8.23;;;6.00;;
3971;SDS011;2000;47.572;14.202;2022-08-30T01:39:10;21.53;;;5.47;;
3971;SDS011;2000;47.572;14.202;2022-08-30T01:41:38;6.27;;;4.73;;
3971;SDS011;2000;47.572;14.202;2022-08-30T01:44:07;13.10;;;5.60;;
3971;SDS011;2000;47.572;14.202;2022-08-30T01:46:40;8.37;;;6.43;;
3971;SDS011;2000;47.572;14.202;2022-08-30T01:49:12;8.43;;;5.30;;
3971;SDS011;2000;47.572;14.202;2022-08-30T01:51:41;7.50;;;6.00;;
3971;SDS011;2000;47.572;14.202;2022-08-30T01:54:08;8.47;;;6.17;;
3971;SDS011;2000;47.572;14.202;2022-08-30T01:56:35;10.50;;;6.00;;
3971;SDS011;2000;47.572;14.202;2022-08-30T01:59:02;11.63;;;6.30;;
3971;SDS011;2000;47.572;14.202;2022-08-30T02:01:30;10.57;;;6.70;;
3971;SDS011;2000;47.572;14.202;2022-08-30T02:03:58;10.63;;;6.00;;
3971;SDS011;2000;47.572;14.202;2022-08-30T02:06:25;8.60;;;5.60;;
3971;SDS011;2000;47.572;14.202;2022-08-30T02:08:52;10.83;;;5.53;;
3971;SDS011;2000;47.572;14.202;2022-08-30T02:11:19;10.03;;;6.00;;
3971;SDS011;2000;47.572;14.202;2022-08-30T02:13:46;10.03;;;6.80;;
3971;SDS011;2000;47.572;14.202;2022-08-30T02:16:14;13.53;;;6.00;;
3971;SDS011;2000;47.572;14.202;2022-08-30T02:18:43;7.70;;;6.00;;
3971;SDS011;2000;47.572;14.202;2022-08-30T02:21:10;9.63;;;6.57;;
3971;SDS011;2000;47.572;14.202;2022-08-30T02:23:38;7.90;;;6.30;;
3971;SDS011;2000;47.572;14.202;2022-08-30T02:26:05;12.90;;;6.27;;
3971;SDS011;2000;47.572;14.202;2022-08-30T02:28:32;7.57;;;5.50;;
3971;SDS011;2000;47.572;14.202;2022-08-30T02:30:59;7.53;;;5.10;;
3971;SDS011;2000;47.572;14.202;2022-08-30T02:33:26;8.17;;;5.30;;
3971;SDS011;2000;47.572;14.202;2022-08-30T02:35:53;8.83;;;5.90;;
3971;SDS011;2000;47.572;14.202;2022-08-30T02:38:21;8.90;;;5.90;;
3971;SDS011;2000;47.572;14.202;2022-08-30T02:40:49;11.30;;;4.93;;
3971;SDS011;2000;47.572;14.202;2022-08-30T02:43:18;8.83;;;4.70;;
3971;SDS011;2000;47.572;14.202;2022-08-30T02:45:45;13.23;;;6.47;;
3971;SDS011;2000;47.572;14.202;2022-08-30T02:48:12;7.70;;;5.77;;
3971;SDS011;2000;47.572;14.202;2022-08-30T02:50:42;13.30;;;6.10;;
3971;SDS011;2000;47.572;14.202;2022-08-30T02:53:10;8.13;;;5.90;;
3971;SDS011;2000;47.572;14.202;2022-08-30T02:55:41;13.63;;;5.93;;
3971;SDS011;2000;47.572;14.202;2022-08-30T02:58:08;17.73;;;6.07;;
3971;SDS011;2000;47.572;14.202;2022-08-30T03:00:36;5.03;;;4.53;;
3971;SDS011;2000;47.572;14.202;2022-08-30T03:03:03;8.43;;;5.70;;
3971;SDS011;2000;47.572;14.202;2022-08-30T03:05:30;7.67;;;5.90;;
3971;SDS011;2000;47.572;14.202;2022-08-30T03:07:58;8.13;;;5.40;;
3971;SDS011;2000;47.572;14.202;2022-08-30T03:10:26;9.83;;;5.87;;
3971;SDS011;2000;47.572;14.202;2022-08-30T03:12:54;6.70;;;5.10;;
3971;SDS011;2000;47.572;14.202;2022-08-30T03:15:21;13.03;;;5.40;;
3971;SDS011;2000;47.572;14.202;2022-08-30T03:17:52;10.50;;;5.83;;
3971;SDS011;2000;47.572;14.202;2022-08-30T03:20:20;7.10;;;5.73;;
3971;SDS011;2000;47.572;14.202;2022-08-30T03:22:47;15.97;;;6.10;;
3971;SDS011;2000;47.572;14.202;2022-08-30T03:25:14;5.43;;;4.90;;
3971;SDS011;2000;47.572;14.202;2022-08-30T03:27:41;7.63;;;5.77;;
3971;SDS011;2000;47.572;14.202;2022-08-30T03:30:08;7.93;;;6.20;;
3971;SDS011;2000;47.572;14.202;2022-08-30T03:32:36;8.70;;;5.70;;
3971;SDS011;2000;47.572;14.202;2022-08-30T03:35:03;7.77;;;6.77;;
3971;SDS011;2000;47.572;14.202;2022-08-30T03:37:30;12.27;;;6.90;;
3971;SDS011;2000;47.572;14.202;2022-08-30T03:39:57;8.60;;;7.00;;
3971;SDS011;2000;47.572;14.202;2022-08-30T03:42:24;10.17;;;5.60;;
3971;SDS011;2000;47.572;14.202;2022-08-30T03:44:52;9.47;;;5.80;;
3971;SDS011;2000;47.572;14.202;2022-08-30T03:47:19;9.43;;;6.30;;
3971;SDS011;2000;47.572;14.202;2022-08-30T03:49:46;11.33;;;5.20;;
3971;SDS011;2000;47.572;14.202;2022-08-30T03:52:13;7.53;;;6.63;;
3971;SDS011;2000;47.572;14.202;2022-08-30T03:54:41;9.00;;;7.77;;
3971;SDS011;2000;47.572;14.202;2022-08-30T03:57:08;11.67;;;7.67;;
3971;SDS011;2000;47.572;14.202;2022-08-30T03:59:45;21.70;;;7.20;;
3971;SDS011;2000;47.572;14.202;2022-08-30T04:02:12;8.87;;;6.80;;
3971;SDS011;2000;47.572;14.202;2022-08-30T04:04:39;9.60;;;7.70;;
3971;SDS011;2000;47.572;14.202;2022-08-30T04:07:05;8.90;;;6.70;;
3971;SDS011;2000;47.572;14.202;2022-08-30T04:09:32;11.10;;;7.60;;
3971;SDS011;2000;47.572;14.202;2022-08-30T04:11:59;21.90;;;6.87;;
3971;SDS011;2000;47.572;14.202;2022-08-30T04:14:26;13.07;;;7.33;;
3971;SDS011;2000;47.572;14.202;2022-08-30T04:16:52;9.80;;;7.50;;
3971;SDS011;2000;47.572;14.202;2022-08-30T04:19:19;8.83;;;7.13;;
3971;SDS011;2000;47.572;14.202;2022-08-30T04:21:46;11.90;;;7.73;;
3971;SDS011;2000;47.572;14.202;2022-08-30T04:24:13;9.80;;;7.13;;
3971;SDS011;2000;47.572;14.202;2022-08-30T04:26:39;15.53;;;8.10;;
3971;SDS011;2000;47.572;14.202;2022-08-30T04:29:06;14.87;;;7.00;;
3971;SDS011;2000;47.572;14.202;2022-08-30T04:31:33;15.83;;;6.67;;
3971;SDS011;2000;47.572;14.202;2022-08-30T04:34:00;7.40;;;6.03;;
3971;SDS011;2000;47.572;14.202;2022-08-30T04:36:26;9.50;;;6.80;;
3971;SDS011;2000;47.572;14.202;2022-08-30T04:38:53;14.40;;;6.87;;
3971;SDS011;2000;47.572;14.202;2022-08-30T04:41:20;15.80;;;6.83;;
3971;SDS011;2000;47.572;14.202;2022-08-30T04:43:49;10.33;;;6.27;;
3971;SDS011;2000;47.572;14.202;2022-08-30T04:46:17;8.57;;;7.03;;
3971;SDS011;2000;47.572;14.202;2022-08-30T04:48:44;7.77;;;6.27;;
3971;SDS011;2000;47.572;14.202;2022-08-30T04:51:13;8.40;;;7.40;;
3971;SDS011;2000;47.572;14.202;2022-08-30T04:53:41;6.40;;;5.70;;
3971;SDS011;2000;47.572;14.202;2022-08-30T04:56:09;12.90;;;7.47;;
3971;SDS011;2000;47.572;14.202;2022-08-30T04:58:44;12.60;;;6.80;;
3971;SDS011;2000;47.572;14.202;2022-08-30T05:01:13;9.73;;;7.03;;
3971;SDS011;2000;47.572;14.202;2022-08-30T05:03:45;15.83;;;7.60;;
3971;SDS011;2000;47.572;14.202;2022-08-30T05:06:13;12.40;;;7.43;;
3971;SDS011;2000;47.572;14.202;2022-08-30T05:08:40;10.93;;;8.40;;
3971;SDS011;2000;47.572;14.202;2022-08-30T05:11:12;11.43;;;7.93;;
3971;SDS011;2000;47.572;14.202;2022-08-30T05:13:40;14.27;;;6.97;;
3971;SDS011;2000;47.572;14.202;2022-08-30T05:16:07;17.50;;;9.60;;
3971;SDS011;2000;47.572;14.202;2022-08-30T05:18:34;12.67;;;8.60;;
3971;SDS011;2000;47.572;14.202;2022-08-30T05:21:09;15.90;;;8.20;;
3971;SDS011;2000;47.572;14.202;2022-08-30T05:23:38;15.77;;;8.53;;
3971;SDS011;2000;47.572;14.202;2022-08-30T05:26:06;13.00;;;7.90;;
3971;SDS011;2000;47.572;14.202;2022-08-30T05:28:35;10.87;;;8.60;;
3971;SDS011;2000;47.572;14.202;2022-08-30T05:31:02;13.10;;;9.70;;
3971;SDS011;2000;47.572;14.202;2022-08-30T05:33:39;15.87;;;11.20;;
3971;SDS011;2000;47.572;14.202;2022-08-30T05:36:06;21.43;;;11.63;;
3971;SDS011;2000;47.572;14.202;2022-08-30T05:38:34;18.30;;;11.27;;
3971;SDS011;2000;47.572;14.202;2022-08-30T05:41:00;25.97;;;10.80;;
3971;SDS011;2000;47.572;14.202;2022-08-30T05:43:36;21.70;;;12.17;;
3971;SDS011;2000;47.572;14.202;2022-08-30T05:46:04;13.80;;;11.53;;
3971;SDS011;2000;47.572;14.202;2022-08-30T05:48:33;24.03;;;12.20;;
3971;SDS011;2000;47.572;14.202;2022-08-30T05:51:12;28.40;;;17.70;;
3971;SDS011;2000;47.572;14.202;2022-08-30T05:53:49;28.77;;;18.30;;
3971;SDS011;2000;47.572;14.202;2022-08-30T05:56:18;28.67;;;16.93;;
3971;SDS011;2000;47.572;14.202;2022-08-30T05:58:51;22.10;;;17.27;;
3971;SDS011;2000;47.572;14.202;2022-08-30T06:03:50;27.83;;;19.50;;
3971;SDS011;2000;47.572;14.202;2022-08-30T06:06:17;26.77;;;20.97;;
3971;SDS011;2000;47.572;14.202;2022-08-30T06:08:44;34.20;;;18.90;;
3971;SDS011;2000;47.572;14.202;2022-08-30T06:11:13;26.03;;;17.40;;
3971;SDS011;2000;47.572;14.202;2022-08-30T06:13:40;29.70;;;17.83;;
3971;SDS011;2000;47.572;14.202;2022-08-30T06:16:09;24.70;;;18.50;;
3971;SDS011;2000;47.572;14.202;2022-08-30T06:18:37;28.67;;;19.47;;
3971;SDS011;2000;47.572;14.202;2022-08-30T06:21:04;26.00;;;18.20;;
3971;SDS011;2000;47.572;14.202;2022-08-30T06:23:31;31.70;;;19.17;;
3971;SDS011;2000;47.572;14.202;2022-08-30T06:26:02;24.30;;;18.00;;
3971;SDS011;2000;47.572;14.202;2022-08-30T06:28:30;26.73;;;17.80;;
3971;SDS011;2000;47.572;14.202;2022-08-30T06:30:57;29.30;;;20.00;;
3971;SDS011;2000;47.572;14.202;2022-08-30T06:33:24;29.23;;;20.83;;
3971;SDS011;2000;47.572;14.202;2022-08-30T06:35:51;25.30;;;18.07;;
3971;SDS011;2000;47.572;14.202;2022-08-30T06:38:24;27.57;;;20.03;;
3971;SDS011;2000;47.572;14.202;2022-08-30T06:40:52;24.73;;;17.77;;
3971;SDS011;2000;47.572;14.202;2022-08-30T06:43:19;22.97;;;17.83;;
3971;SDS011;2000;47.572;14.202;2022-08-30T06:45:46;29.23;;;18.20;;
3971;SDS011;2000;47.572;14.202;2022-08-30T06:48:13;25.73;;;16.50;;
3971;SDS011;2000;47.572;14.202;2022-08-30T06:50:40;28.53;;;17.50;;
3971;SDS011;2000;47.572;14.202;2022-08-30T06:53:07;24.80;;;16.10;;
3971;SDS011;2000;47.572;14.202;2022-08-30T06:55:35;37.50;;;16.50;;
3971;SDS011;2000;47.572;14.202;2022-08-30T06:58:03;27.13;;;16.30;;
3971;SDS011;2000;47.572;14.202;2022-08-30T07:00:30;21.07;;;14.40;;
3971;SDS011;2000;47.572;14.202;2022-08-30T07:02:57;28.70;;;16.30;;
3971;SDS011;2000;47.572;14.202;2022-08-30T07:05:24;23.83;;;15.43;;
3971;SDS011;2000;47.572;14.202;2022-08-30T07:07:51;20.20;;;12.90;;
3971;SDS011;2000;47.572;14.202;2022-08-30T07:10:20;25.80;;;14.43;;
3971;SDS011;2000;47.572;14.202;2022-08-30T07:12:47;21.10;;;13.03;;
3971;SDS011;2000;47.572;14.202;2022-08-30T07:15:14;18.93;;;10.90;;
3971;SDS011;2000;47.572;14.202;2022-08-30T07:17:41;21.60;;;12.70;;
3971;SDS011;2000;47.572;14.202;2022-08-30T07:20:26;16.63;;;13.07;;
3971;SDS011;2000;47.572;14.202;2022-08-30T07:23:05;19.93;;;11.53;;
3971;SDS011;2000;47.572;14.202;2022-08-30T07:25:32;19.57;;;12.40;;
3971;SDS011;2000;47.572;14.202;2022-08-30T07:27:59;16.03;;;10.10;;
3971;SDS011;2000;47.572;14.202;2022-08-30T07:30:26;15.50;;;10.70;;
3971;SDS011;2000;47.572;14.202;2022-08-30T07:32:53;16.23;;;10.60;;
3971;SDS011;2000;47.572;14.202;2022-08-30T07:35:19;17.93;;;8.70;;
3971;SDS011;2000;47.572;14.202;2022-08-30T07:37:46;16.30;;;8.27;;
3971;SDS011;2000;47.572;14.202;2022-08-30T07:40:13;12.13;;;9.13;;
3971;SDS011;2000;47.572;14.202;2022-08-30T07:42:40;10.60;;;7.47;;
3971;SDS011;2000;47.572;14.202;2022-08-30T07:45:07;10.50;;;8.10;;
3971;SDS011;2000;47.572;14.202;2022-08-30T07:47:35;21.50;;;8.93;;
3971;SDS011;2000;47.572;14.202;2022-08-30T07:50:03;11.73;;;9.20;;
3971;SDS011;2000;47.572;14.202;2022-08-30T07:52:31;11.03;;;7.50;;
3971;SDS011;2000;47.572;14.202;2022-08-30T07:54:59;12.77;;;9.10;;
3971;SDS011;2000;47.572;14.202;2022-08-30T07:57:26;17.80;;;9.40;;
3971;SDS011;2000;47.572;14.202;2022-08-30T07:59:56;17.03;;;8.80;;
3971;SDS011;2000;47.572;14.202;2022-08-30T08:02:23;13.30;;;8.10;;
3971;SDS011;2000;47.572;14.202;2022-08-30T08:04:50;11.60;;;8.47;;
3971;SDS011;2000;47.572;14.202;2022-08-30T08:07:17;12.33;;;7.90;;
3971;SDS011;2000;47.572;14.202;2022-08-30T08:09:44;12.47;;;7.53;;
3971;SDS011;2000;47.572;14.202;2022-08-30T08:12:11;10.57;;;7.73;;
3971;SDS011;2000;47.572;14.202;2022-08-30T08:14:38;12.23;;;8.40;;
3971;SDS011;2000;47.572;14.202;2022-08-30T08:17:06;13.73;;;7.90;;
3971;SDS011;2000;47.572;14.202;2022-08-30T08:19:33;19.23;;;8.77;;
3971;SDS011;2000;47.572;14.202;2022-08-30T08:22:00;14.73;;;9.70;;
3971;SDS011;2000;47.572;14.202;2022-08-30T08:24:46;11.53;;;8.47;;
3971;SDS011;2000;47.572;14.202;2022-08-30T08:27:12;9.53;;;7.50;;
3971;SDS011;2000;47.572;14.202;2022-08-30T08:29:39;19.63;;;7.73;;
3971;SDS011;2000;47.572;14.202;2022-08-30T08:32:06;16.63;;;7.90;;
3971;SDS011;2000;47.572;14.202;2022-08-30T08:34:33;12.73;;;8.77;;
3971;SDS011;2000;47.572;14.202;2022-08-30T08:37:01;9.27;;;7.80;;
3971;SDS011;2000;47.572;14.202;2022-08-30T08:39:28;11.83;;;8.37;;
3971;SDS011;2000;47.572;14.202;2022-08-30T08:47:32;11.30;;;7.20;;
3971;SDS011;2000;47.572;14.202;2022-08-30T08:50:08;12.03;;;7.40;;
3971;SDS011;2000;47.572;14.202;2022-08-30T08:52:53;9.87;;;7.07;;
3971;SDS011;2000;47.572;14.202;2022-08-30T08:56:12;10.10;;;6.90;;
3971;SDS011;2000;47.572;14.202;2022-08-30T09:01:10;9.43;;;6.50;;
3971;SDS011;2000;47.572;14.202;2022-08-30T09:03:38;8.63;;;6.20;;
3971;SDS011;2000;47.572;14.202;2022-08-30T09:06:20;9.23;;;6.63;;
3971;SDS011;2000;47.572;14.202;2022-08-30T09:09:11;9.70;;;7.87;;
3971;SDS011;2000;47.572;14.202;2022-08-30T09:11:38;12.40;;;7.03;;
3971;SDS011;2000;47.572;14.202;2022-08-30T09:14:11;8.40;;;7.17;;
3971;SDS011;2000;47.572;14.202;2022-08-30T09:16:45;10.63;;;7.60;;
3971;SDS011;2000;47.572;14.202;2022-08-30T09:19:32;8.47;;;6.83;;
3971;SDS011;2000;47.572;14.202;2022-08-30T09:27:39;11.83;;;6.20;;
3971;SDS011;2000;47.572;14.202;2022-08-30T09:32:48;14.70;;;7.10;;
3971;SDS011;2000;47.572;14.202;2022-08-30T09:35:21;14.70;;;8.33;;
3971;SDS011;2000;47.572;14.202;2022-08-30T09:38:03;8.93;;;7.27;;
3971;SDS011;2000;47.572;14.202;2022-08-30T09:40:36;15.80;;;8.20;;
3971;SDS011;2000;47.572;14.202;2022-08-30T09:43:09;15.50;;;6.80;;
3971;SDS011;2000;47.572;14.202;2022-08-30T09:45:43;12.60;;;7.67;;
3971;SDS011;2000;47.572;14.202;2022-08-30T09:48:23;8.90;;;7.00;;
3971;SDS011;2000;47.572;14.202;2022-08-30T09:53:38;13.60;;;6.80;;
3971;SDS011;2000;47.572;14.202;2022-08-30T09:59:42;8.53;;;6.30;;
3971;SDS011;2000;47.572;14.202;2022-08-30T10:02:30;9.07;;;7.00;;
3971;SDS011;2000;47.572;14.202;2022-08-30T10:05:05;9.23;;;5.90;;
3971;SDS011;2000;47.572;14.202;2022-08-30T10:11:00;11.40;;;6.90;;
3971;SDS011;2000;47.572;14.202;2022-08-30T10:13:36;16.83;;;5.90;;
3971;SDS011;2000;47.572;14.202;2022-08-30T10:16:13;13.27;;;7.33;;
3971;SDS011;2000;47.572;14.202;2022-08-30T10:18:55;20.50;;;7.33;;
3971;SDS011;2000;47.572;14.202;2022-08-30T10:21:37;7.20;;;6.50;;
3971;SDS011;2000;47.572;14.202;2022-08-30T10:24:10;7.07;;;6.17;;
3971;SDS011;2000;47.572;14.202;2022-08-30T10:26:51;9.20;;;6.30;;
3971;SDS011;2000;47.572;14.202;2022-08-30T10:34:52;7.90;;;7.07;;
3971;SDS011;2000;47.572;14.202;2022-08-30T10:37:25;13.17;;;6.70;;
3971;SDS011;2000;47.572;14.202;2022-08-30T10:39:56;13.53;;;5.30;;
3971;SDS011;2000;47.572;14.202;2022-08-30T10:42:47;13.10;;;6.00;;
3971;SDS011;2000;47.572;14.202;2022-08-30T10:45:15;7.27;;;6.53;;
3971;SDS011;2000;47.572;14.202;2022-08-30T10:47:52;14.00;;;5.80;;
3971;SDS011;2000;47.572;14.202;2022-08-30T10:50:33;7.97;;;5.77;;
3971;SDS011;2000;47.572;14.202;2022-08-30T10:53:17;6.73;;;5.50;;
3971;SDS011;2000;47.572;14.202;2022-08-30T10:55:48;5.73;;;5.13;;
3971;SDS011;2000;47.572;14.202;2022-08-30T10:58:17;6.50;;;5.23;;
3971;SDS011;2000;47.572;14.202;2022-08-30T11:00:51;7.47;;;4.73;;
3971;SDS011;2000;47.572;14.202;2022-08-30T11:06:41;9.20;;;6.07;;
3971;SDS011;2000;47.572;14.202;2022-08-30T11:15:22;7.57;;;5.57;;
3971;SDS011;2000;47.572;14.202;2022-08-30T11:26:05;5.47;;;4.77;;
3971;SDS011;2000;47.572;14.202;2022-08-30T11:33:55;7.93;;;5.70;;
3971;SDS011;2000;47.572;14.202;2022-08-30T11:41:36;5.43;;;4.63;;
3971;SDS011;2000;47.572;14.202;2022-08-30T11:44:12;10.33;;;4.90;;
3971;SDS011;2000;47.572;14.202;2022-08-30T11:46:47;7.03;;;4.90;;
3971;SDS011;2000;47.572;14.202;2022-08-30T12:03:01;4.07;;;3.67;;
3971;SDS011;2000;47.572;14.202;2022-08-30T12:10:47;6.43;;;4.57;;
3971;SDS011;2000;47.572;14.202;2022-08-30T12:18:52;3.10;;;2.90;;
3971;SDS011;2000;47.572;14.202;2022-08-30T12:21:27;3.40;;;2.93;;
3971;SDS011;2000;47.572;14.202;2022-08-30T12:24:16;9.97;;;4.23;;
3971;SDS011;2000;47.572;14.202;2022-08-30T12:26:47;7.50;;;4.27;;
3971;SDS011;2000;47.572;14.202;2022-08-30T12:29:27;3.80;;;3.50;;
3971;SDS011;2000;47.572;14.202;2022-08-30T12:31:56;4.63;;;3.30;;
3971;SDS011;2000;47.572;14.202;2022-08-30T12:34:28;7.60;;;3.67;;
3971;SDS011;2000;47.572;14.202;2022-08-30T12:37:00;7.00;;;3.60;;
3971;SDS011;2000;47.572;14.202;2022-08-30T12:39:31;4.63;;;3.30;;
3971;SDS011;2000;47.572;14.202;2022-08-30T12:44:53;9.17;;;3.70;;
3971;SDS011;2000;47.572;14.202;2022-08-30T12:47:44;5.10;;;4.00;;
3971;SDS011;2000;47.572;14.202;2022-08-30T12:50:13;4.83;;;4.37;;
3971;SDS011;2000;47.572;14.202;2022-08-30T12:52:54;4.17;;;3.77;;
3971;SDS011;2000;47.572;14.202;2022-08-30T12:55:32;4.47;;;3.67;;
3971;SDS011;2000;47.572;14.202;2022-08-30T12:58:02;3.33;;;3.03;;
3971;SDS011;2000;47.572;14.202;2022-08-30T13:05:55;3.10;;;2.90;;
3971;SDS011;2000;47.572;14.202;2022-08-30T13:11:03;3.57;;;3.20;;
3971;SDS011;2000;47.572;14.202;2022-08-30T13:13:44;3.80;;;3.50;;
3971;SDS011;2000;47.572;14.202;2022-08-30T13:18:46;3.83;;;3.50;;
3971;SDS011;2000;47.572;14.202;2022-08-30T13:21:20;5.73;;;4.03;;
3971;SDS011;2000;47.572;14.202;2022-08-30T13:23:47;3.57;;;3.27;;
3971;SDS011;2000;47.572;14.202;2022-08-30T13:26:16;4.67;;;3.20;;
3971;SDS011;2000;47.572;14.202;2022-08-30T13:28:49;3.73;;;3.43;;
3971;SDS011;2000;47.572;14.202;2022-08-30T13:31:18;3.73;;;3.00;;
3971;SDS011;2000;47.572;14.202;2022-08-30T13:33:47;4.80;;;3.50;;
3971;SDS011;2000;47.572;14.202;2022-08-30T13:36:19;3.67;;;3.37;;
3971;SDS011;2000;47.572;14.202;2022-08-30T13:38:49;3.87;;;3.20;;
3971;SDS011;2000;47.572;14.202;2022-08-30T13:41:17;4.00;;;3.33;;
3971;SDS011;2000;47.572;14.202;2022-08-30T13:43:46;4.00;;;3.00;;
3971;SDS011;2000;47.572;14.202;2022-08-30T13:46:33;3.80;;;3.50;;
3971;SDS011;2000;47.572;14.202;2022-08-30T13:49:02;3.97;;;3.53;;
3971;SDS011;2000;47.572;14.202;2022-08-30T13:51:32;5.27;;;3.53;;
3971;SDS011;2000;47.572;14.202;2022-08-30T13:54:00;2.80;;;2.60;;
3971;SDS011;2000;47.572;14.202;2022-08-30T13:56:28;4.50;;;2.97;;
3971;SDS011;2000;47.572;14.202;2022-08-30T13:58:57;4.13;;;3.40;;
3971;SDS011;2000;47.572;14.202;2022-08-30T14:01:27;6.47;;;4.30;;
3971;SDS011;2000;47.572;14.202;2022-08-30T14:04:14;4.17;;;3.77;;
3971;SDS011;2000;47.572;14.202;2022-08-30T14:06:42;6.03;;;3.93;;
3971;SDS011;2000;47.572;14.202;2022-08-30T14:09:29;4.13;;;3.73;;
3971;SDS011;2000;47.572;14.202;2022-08-30T14:11:56;4.13;;;3.73;;
3971;SDS011;2000;47.572;14.202;2022-08-30T14:14:22;5.00;;;3.30;;
3971;SDS011;2000;47.572;14.202;2022-08-30T14:17:08;3.87;;;3.57;;
3971;SDS011;2000;47.572;14.202;2022-08-30T14:19:35;4.20;;;3.47;;
3971;SDS011;2000;47.572;14.202;2022-08-30T14:22:01;5.20;;;3.27;;
3971;SDS011;2000;47.572;14.202;2022-08-30T14:24:28;3.67;;;3.37;;
3971;SDS011;2000;47.572;14.202;2022-08-30T14:26:55;7.60;;;3.23;;
3971;SDS011;2000;47.572;14.202;2022-08-30T14:29:23;6.00;;;4.30;;
3971;SDS011;2000;47.572;14.202;2022-08-30T14:31:55;5.13;;;3.00;;
3971;SDS011;2000;47.572;14.202;2022-08-30T14:34:25;3.60;;;3.30;;
3971;SDS011;2000;47.572;14.202;2022-08-30T14:36:52;5.93;;;3.93;;
3971;SDS011;2000;47.572;14.202;2022-08-30T14:39:19;7.17;;;3.80;;
3971;SDS011;2000;47.572;14.202;2022-08-30T14:41:48;4.00;;;3.70;;
3971;SDS011;2000;47.572;14.202;2022-08-30T14:44:17;3.20;;;2.90;;
3971;SDS011;2000;47.572;14.202;2022-08-30T14:46:44;4.57;;;4.17;;
3971;SDS011;2000;47.572;14.202;2022-08-30T14:49:12;3.87;;;3.57;;
3971;SDS011;2000;47.572;14.202;2022-08-30T14:51:40;3.63;;;3.33;;
3971;SDS011;2000;47.572;14.202;2022-08-30T14:54:08;3.60;;;3.30;;
3971;SDS011;2000;47.572;14.202;2022-08-30T14:56:35;4.07;;;3.77;;
3971;SDS011;2000;47.572;14.202;2022-08-30T14:59:03;5.87;;;3.40;;
3971;SDS011;2000;47.572;14.202;2022-08-30T15:01:30;9.93;;;3.40;;
3971;SDS011;2000;47.572;14.202;2022-08-30T15:04:02;3.33;;;3.03;;
3971;SDS011;2000;47.572;14.202;2022-08-30T15:06:32;5.73;;;4.47;;
3971;SDS011;2000;47.572;14.202;2022-08-30T15:09:02;4.10;;;3.80;;
3971;SDS011;2000;47.572;14.202;2022-08-30T15:11:30;3.70;;;3.40;;
3971;SDS011;2000;47.572;14.202;2022-08-30T15:13:58;7.87;;;3.60;;
3971;SDS011;2000;47.572;14.202;2022-08-30T15:16:29;3.90;;;3.30;;
3971;SDS011;2000;47.572;14.202;2022-08-30T15:18:58;3.57;;;2.83;;
3971;SDS011;2000;47.572;14.202;2022-08-30T15:21:32;3.97;;;3.57;;
3971;SDS011;2000;47.572;14.202;2022-08-30T15:24:01;6.90;;;4.50;;
3971;SDS011;2000;47.572;14.202;2022-08-30T15:26:29;4.10;;;3.70;;
3971;SDS011;2000;47.572;14.202;2022-08-30T15:28:57;4.93;;;3.70;;
3971;SDS011;2000;47.572;14.202;2022-08-30T15:31:25;3.90;;;3.60;;
3971;SDS011;2000;47.572;14.202;2022-08-30T15:33:53;4.33;;;3.90;;
3971;SDS011;2000;47.572;14.202;2022-08-30T15:36:22;7.13;;;3.77;;
3971;SDS011;2000;47.572;14.202;2022-08-30T15:38:50;9.73;;;3.97;;
3971;SDS011;2000;47.572;14.202;2022-08-30T15:41:19;4.30;;;3.90;;
3971;SDS011;2000;47.572;14.202;2022-08-30T15:43:46;4.57;;;4.10;;
3971;SDS011;2000;47.572;14.202;2022-08-30T15:48:48;4.77;;;4.23;;
3971;SDS011;2000;47.572;14.202;2022-08-30T15:51:17;6.00;;;3.30;;
3971;SDS011;2000;47.572;14.202;2022-08-30T15:53:44;4.33;;;3.97;;
3971;SDS011;2000;47.572;14.202;2022-08-30T15:56:12;4.30;;;3.90;;
3971;SDS011;2000;47.572;14.202;2022-08-30T15:58:39;4.00;;;3.20;;
3971;SDS011;2000;47.572;14.202;2022-08-30T16:01:06;5.97;;;4.43;;
3971;SDS011;2000;47.572;14.202;2022-08-30T16:03:33;8.07;;;3.53;;
3971;SDS011;2000;47.572;14.202;2022-08-30T16:06:03;3.97;;;3.50;;
3971;SDS011;2000;47.572;14.202;2022-08-30T16:08:30;4.17;;;3.77;;
3971;SDS011;2000;47.572;14.202;2022-08-30T16:10:56;7.97;;;4.43;;
3971;SDS011;2000;47.572;14.202;2022-08-30T16:13:23;6.13;;;4.33;;
3971;SDS011;2000;47.572;14.202;2022-08-30T16:15:50;4.50;;;4.10;;
3971;SDS011;2000;47.572;14.202;2022-08-30T16:18:17;4.83;;;4.40;;
3971;SDS011;2000;47.572;14.202;2022-08-30T16:20:44;4.77;;;4.27;;
3971;SDS011;2000;47.572;14.202;2022-08-30T16:23:11;7.10;;;4.43;;
3971;SDS011;2000;47.572;14.202;2022-08-30T16:25:37;4.63;;;3.97;;
3971;SDS011;2000;47.572;14.202;2022-08-30T16:28:06;5.57;;;3.80;;
3971;SDS011;2000;47.572;14.202;2022-08-30T16:30:35;10.97;;;5.10;;
3971;SDS011;2000;47.572;14.202;2022-08-30T16:33:02;4.77;;;4.37;;
3971;SDS011;2000;47.572;14.202;2022-08-30T16:35:28;6.87;;;4.90;;
3971;SDS011;2000;47.572;14.202;2022-08-30T16:37:56;4.20;;;3.80;;
3971;SDS011;2000;47.572;14.202;2022-08-30T16:40:22;4.77;;;4.30;;
3971;SDS011;2000;47.572;14.202;2022-08-30T16:42:50;7.10;;;4.93;;
3971;SDS011;2000;47.572;14.202;2022-08-30T16:45:17;4.90;;;4.40;;
3971;SDS011;2000;47.572;14.202;2022-08-30T16:47:44;6.07;;;4.80;;
3971;SDS011;2000;47.572;14.202;2022-08-30T16:50:11;9.23;;;5.23;;
3971;SDS011;2000;47.572;14.202;2022-08-30T16:52:38;20.30;;;5.03;;